createdAt,value
2023-10-09T00:00:39.304Z,97711.53
2023-10-09T00:03:08.460Z,97710.03
2023-10-09T00:05:47.960Z,97710.03
2023-10-09T00:08:31.604Z,97713.25
2023-10-09T00:11:16.904Z,97720.56
2023-10-09T00:13:52.510Z,97711.59
2023-10-09T00:16:35.850Z,97711.94
2023-10-09T00:19:16.097Z,97718.53
2023-10-09T00:21:43.078Z,97718.16
2023-10-09T00:24:17.682Z,97716.22
2023-10-09T00:26:50.430Z,97714.31
2023-10-09T00:29:23.195Z,97715.50
2023-10-09T00:31:57.407Z,97711.81
2023-10-09T00:34:27.208Z,97711.91
2023-10-09T00:36:55.053Z,97717.00
2023-10-09T00:39:51.846Z,97713.97
2023-10-09T00:42:28.717Z,97711.66
2023-10-09T00:45:04.254Z,97706.22
2023-10-09T00:47:35.755Z,97707.75
2023-10-09T00:50:17.932Z,97708.09
2023-10-09T00:53:02.662Z,97709.00
2023-10-09T00:55:44.594Z,97702.50
2023-10-09T00:58:14.931Z,97706.44
2023-10-09T01:00:45.247Z,97699.84
2023-10-09T01:03:21.488Z,97692.19
2023-10-09T01:06:08.410Z,97696.84
2023-10-09T01:08:40.927Z,97695.66
2023-10-09T01:11:30.612Z,97687.88
2023-10-09T01:14:13.334Z,97687.50
2023-10-09T01:16:44.166Z,97694.94
2023-10-09T01:19:14.760Z,97691.94
2023-10-09T01:21:43.720Z,97683.41
2023-10-09T01:24:13.314Z,97681.91
2023-10-09T01:26:47.699Z,97685.41
2023-10-09T01:29:20.930Z,97685.75
2023-10-09T01:32:01.893Z,97679.56
2023-10-09T01:34:44.921Z,97684.22
2023-10-09T01:37:27.243Z,97687.34
2023-10-09T01:39:59.236Z,97674.22
2023-10-09T01:42:36.061Z,97681.97
2023-10-09T01:45:13.047Z,97676.59
2023-10-09T01:47:42.132Z,97675.16
2023-10-09T01:50:21.317Z,97672.06
2023-10-09T01:52:50.477Z,97679.06
2023-10-09T01:55:29.832Z,97668.53
2023-10-09T01:58:07.240Z,97677.75
2023-10-09T02:00:43.167Z,97674.22
2023-10-09T02:03:14.298Z,97670.63
2023-10-09T02:05:43.562Z,97674.47
2023-10-09T02:08:13.915Z,97665.53
2023-10-09T02:10:41.004Z,97669.44
2023-10-09T02:13:11.427Z,97670.97
2023-10-09T02:15:47.283Z,97673.28
2023-10-09T02:18:21.981Z,97677.56
2023-10-09T02:21:07.792Z,97667.78
2023-10-09T02:23:45.654Z,97673.66
2023-10-09T02:26:47.567Z,97670.63
2023-10-09T02:29:19.521Z,97669.44
2023-10-09T02:31:52.677Z,97669.38
2023-10-09T02:34:23.502Z,97669.31
2023-10-09T02:36:58.809Z,97672.75
2023-10-09T02:39:28.181Z,97670.03
2023-10-09T02:42:03.086Z,97667.25
2023-10-09T02:44:35.693Z,97670.75
2023-10-09T02:47:07.439Z,97666.50
2023-10-09T02:49:40.955Z,97661.88
2023-10-09T02:52:08.877Z,97660.72
2023-10-09T02:54:42.993Z,97654.59
2023-10-09T02:57:23.021Z,97655.78
2023-10-09T02:59:55.049Z,97651.88
2023-10-09T03:02:25.470Z,97654.59
2023-10-09T03:04:56.733Z,97654.16
2023-10-09T03:07:24.724Z,97644.47
2023-10-09T03:09:51.508Z,97649.16
2023-10-09T03:12:20.032Z,97650.69
2023-10-09T03:14:52.055Z,97653.41
2023-10-09T03:17:21.086Z,97651.19
2023-10-09T03:19:50.678Z,97652.25
2023-10-09T03:22:19.930Z,97651.03
2023-10-09T03:24:50.773Z,97650.50
2023-10-09T03:27:20.567Z,97655.19
2023-10-09T03:29:51.142Z,97655.94
2023-10-09T03:32:24.418Z,97661.72
2023-10-09T03:34:52.491Z,97657.97
2023-10-09T03:37:45.425Z,97664.34
2023-10-09T03:40:18.839Z,97665.16
2023-10-09T03:42:46.276Z,97657.72
2023-10-09T03:45:29.050Z,97655.06
2023-10-09T03:48:03.223Z,97651.22
2023-10-09T03:50:39.225Z,97653.63
2023-10-09T03:53:09.642Z,97656.47
2023-10-09T03:55:40.775Z,97662.66
2023-10-09T03:58:15.001Z,97657.50
2023-10-09T04:00:50.733Z,97654.34
2023-10-09T04:03:17.798Z,97665.03
2023-10-09T04:05:47.028Z,97661.09
2023-10-09T04:08:29.753Z,97654.00
2023-10-09T04:11:02.634Z,97664.06
2023-10-09T04:13:35.601Z,97651.59
2023-10-09T04:16:12.282Z,97657.41
2023-10-09T04:18:41.040Z,97660.06
2023-10-09T04:21:21.135Z,97654.25
2023-10-09T04:24:06.550Z,97658.16
2023-10-09T04:26:36.267Z,97662.09
2023-10-09T04:29:03.554Z,97650.06
2023-10-09T04:31:33.700Z,97650.50
2023-10-09T04:34:20.642Z,97655.25
2023-10-09T04:36:59.133Z,97657.66
2023-10-09T04:39:31.322Z,97651.03
2023-10-09T04:42:19.625Z,97653.75
2023-10-09T04:45:19.656Z,97651.81
2023-10-09T04:48:08.115Z,97659.19
2023-10-09T04:50:35.212Z,97654.53
2023-10-09T04:53:16.131Z,97654.16
2023-10-09T04:55:55.333Z,97652.97
2023-10-09T04:58:27.021Z,97654.94
2023-10-09T05:00:59.144Z,97652.22
2023-10-09T05:03:30.345Z,97650.66
2023-10-09T05:06:19.464Z,97648.72
2023-10-09T05:08:49.571Z,97659.16
2023-10-09T05:11:37.219Z,97661.47
2023-10-09T05:14:14.928Z,97663.00
2023-10-09T05:16:55.524Z,97664.88
2023-10-09T05:19:30.902Z,97662.94
2023-10-09T05:21:59.675Z,97667.59
2023-10-09T05:24:43.687Z,97657.50
2023-10-09T05:27:18.913Z,97671.47
2023-10-09T05:30:14.369Z,97662.53
2023-10-09T05:32:49.565Z,97671.47
2023-10-09T05:35:21.427Z,97677.19
2023-10-09T05:38:02.350Z,97670.56
2023-10-09T05:40:36.676Z,97673.66
2023-10-09T05:43:05.450Z,97678.34
2023-10-09T05:45:50.501Z,97674.06
2023-10-09T05:48:17.332Z,97677.56
2023-10-09T05:51:04.931Z,97680.66
2023-10-09T05:53:46.575Z,97679.84
2023-10-09T05:56:32.696Z,97677.88
2023-10-09T05:59:07.772Z,97680.53
2023-10-09T06:02:09.280Z,97687.88
2023-10-09T06:04:55.612Z,97686.25
2023-10-09T06:07:42.114Z,97683.44
2023-10-09T06:10:19.355Z,97689.53
2023-10-09T06:12:47.770Z,97687.56
2023-10-09T06:15:33.822Z,97694.91
2023-10-09T06:18:20.596Z,97687.88
2023-10-09T06:21:05.842Z,97690.16
2023-10-09T06:23:51.225Z,97696.31
2023-10-09T06:26:27.403Z,97697.03
2023-10-09T06:29:14.000Z,97703.53
2023-10-09T06:32:17.515Z,97703.09
2023-10-09T06:34:47.652Z,97708.81
2023-10-09T06:37:25.879Z,97708.34
2023-10-09T06:39:59.028Z,97711.75
2023-10-09T06:42:35.676Z,97697.25
2023-10-09T06:45:10.290Z,97708.09
2023-10-09T06:47:43.142Z,97704.13
2023-10-09T06:50:21.324Z,97706.66
2023-10-09T06:53:07.444Z,97708.13
2023-10-09T06:55:58.601Z,97714.88
2023-10-09T06:58:28.082Z,97713.59
2023-10-09T07:01:00.356Z,97713.75
2023-10-09T07:03:53.450Z,97713.84
2023-10-09T07:06:26.315Z,97718.31
2023-10-09T07:09:06.076Z,97706.25
2023-10-09T07:11:41.478Z,97727.06
2023-10-09T07:14:34.360Z,97726.31
2023-10-09T07:17:29.101Z,97722.69
2023-10-09T07:20:17.043Z,97719.84
2023-10-09T07:23:15.116Z,97733.72
2023-10-09T07:25:43.678Z,97724.59
2023-10-09T07:28:30.086Z,97728.28
2023-10-09T07:30:59.600Z,97733.25
2023-10-09T07:33:47.269Z,97728.09
2023-10-09T07:36:15.025Z,97725.22
2023-10-09T07:38:45.678Z,97734.69
2023-10-09T07:41:34.898Z,97728.69
2023-10-09T07:44:20.230Z,97727.75
2023-10-09T07:47:14.575Z,97736.44
2023-10-09T07:49:49.657Z,97732.00
2023-10-09T07:52:19.397Z,97731.31
2023-10-09T07:54:54.739Z,97736.25
2023-10-09T07:57:30.754Z,97740.75
2023-10-09T08:00:13.017Z,97742.19
2023-10-09T08:02:40.286Z,97741.09
2023-10-09T08:05:19.710Z,97744.09
2023-10-09T08:08:35.473Z,97743.66
2023-10-09T08:11:40.772Z,97751.09
2023-10-09T08:14:22.278Z,97753.13
2023-10-09T08:16:50.446Z,97754.88
2023-10-09T08:19:34.783Z,97750.28
2023-10-09T08:22:19.872Z,97755.66
2023-10-09T08:24:57.095Z,97746.25
2023-10-09T08:27:33.423Z,97745.84
2023-10-09T08:30:19.712Z,97746.50
2023-10-09T08:36:03.281Z,97751.44
2023-10-09T08:38:38.017Z,97757.38
2023-10-09T08:41:24.368Z,97745.56
2023-10-09T08:43:54.514Z,97753.09
2023-10-09T08:46:28.566Z,97747.41
2023-10-09T08:48:57.010Z,97752.44
2023-10-09T08:51:26.308Z,97744.22
2023-10-09T08:53:56.040Z,97744.09
2023-10-09T08:56:25.886Z,97748.81
2023-10-09T08:59:00.485Z,97747.47
2023-10-09T09:01:29.389Z,97753.75
2023-10-09T09:03:59.696Z,97755.75
2023-10-09T09:06:26.586Z,97748.69
2023-10-09T09:09:11.366Z,97757.84
2023-10-09T09:11:51.007Z,97754.03
2023-10-09T09:14:20.403Z,97756.41
2023-10-09T09:16:49.891Z,97747.66
2023-10-09T09:19:19.443Z,97740.16
2023-10-09T09:22:00.584Z,97745.91
2023-10-09T09:24:32.447Z,97745.50
2023-10-09T09:27:22.078Z,97742.63
2023-10-09T09:29:54.231Z,97733.41
2023-10-09T09:32:36.652Z,97733.81
2023-10-09T09:35:06.854Z,97733.94
2023-10-09T09:37:44.980Z,97737.53
2023-10-09T09:40:33.398Z,97733.00
2023-10-09T09:43:06.742Z,97728.88
2023-10-09T09:45:37.543Z,97728.59
2023-10-09T09:48:07.586Z,97722.97
2023-10-09T09:50:44.534Z,97724.63
2023-10-09T09:53:18.804Z,97715.78
2023-10-09T09:55:58.699Z,97717.44
2023-10-09T09:58:44.039Z,97709.31
2023-10-09T10:01:17.508Z,97706.03
2023-10-09T10:03:53.314Z,97700.53
2023-10-09T10:06:27.612Z,97698.72
2023-10-09T10:08:54.984Z,97696.53
2023-10-09T10:11:45.518Z,97698.25
2023-10-09T10:14:32.706Z,97692.00
2023-10-09T10:17:32.967Z,97684.91
2023-10-09T10:20:18.370Z,97684.28
2023-10-09T10:22:49.213Z,97683.97
2023-10-09T10:25:34.148Z,97685.72
2023-10-09T10:28:37.594Z,97685.53
2023-10-09T10:31:08.409Z,97685.09
2023-10-09T10:33:54.923Z,97683.88
2023-10-09T10:36:34.892Z,97684.34
2023-10-09T10:39:11.706Z,97679.97
2023-10-09T10:41:59.521Z,97681.25
2023-10-09T10:44:37.590Z,97679.53
2023-10-09T10:47:06.613Z,97671.72
2023-10-09T10:49:41.819Z,97678.00
2023-10-09T10:52:20.049Z,97671.25
2023-10-09T10:55:06.653Z,97671.94
2023-10-09T10:57:56.184Z,97663.28
2023-10-09T11:00:41.834Z,97677.13
2023-10-09T11:03:14.922Z,97667.78
2023-10-09T11:05:52.497Z,97666.81
2023-10-09T11:08:25.181Z,97671.56
2023-10-09T11:10:52.249Z,97657.78
2023-10-09T11:13:35.666Z,97648.75
2023-10-09T11:16:25.227Z,97650.88
2023-10-09T11:18:52.677Z,97650.88
2023-10-09T11:21:22.543Z,97649.28
2023-10-09T11:23:52.332Z,97647.34
2023-10-09T11:26:27.153Z,97645.47
2023-10-09T11:29:33.163Z,97644.03
2023-10-09T11:32:08.473Z,97641.28
2023-10-09T11:34:39.050Z,97635.19
2023-10-09T11:37:16.786Z,97640.22
2023-10-09T11:39:55.028Z,97634.00
2023-10-09T11:42:51.694Z,97637.91
2023-10-09T11:45:38.914Z,97632.03
2023-10-09T11:48:48.168Z,97626.44
2023-10-09T11:51:22.739Z,97622.81
2023-10-09T11:53:55.847Z,97626.75
2023-10-09T11:56:28.575Z,97620.91
2023-10-09T11:59:00.217Z,97609.16
2023-10-09T12:01:36.613Z,97617.09
2023-10-09T12:04:03.794Z,97615.50
2023-10-09T12:06:33.641Z,97608.03
2023-10-09T12:09:06.763Z,97607.13
2023-10-09T12:11:35.761Z,97602.84
2023-10-09T12:14:05.945Z,97594.78
2023-10-09T12:16:34.253Z,97592.84
2023-10-09T12:19:03.648Z,97584.94
2023-10-09T12:21:32.753Z,97577.19
2023-10-09T12:24:02.921Z,97574.31
2023-10-09T12:26:29.886Z,97579.50
2023-10-09T12:28:59.065Z,97573.28
2023-10-09T12:31:26.225Z,97577.81
2023-10-09T12:33:55.219Z,97571.47
2023-10-09T12:36:26.419Z,97569.47
2023-10-09T12:39:00.121Z,97579.09
2023-10-09T12:41:28.637Z,97578.16
2023-10-09T12:43:59.775Z,97576.38
2023-10-09T12:46:33.611Z,97561.19
2023-10-09T12:49:02.761Z,97565.66
2023-10-09T12:51:32.193Z,97557.34
2023-10-09T12:53:58.995Z,97561.56
2023-10-09T12:56:38.857Z,97561.31
2023-10-09T12:59:08.982Z,97557.50
2023-10-09T13:01:44.069Z,97554.06
2023-10-09T13:04:17.667Z,97549.00
2023-10-09T13:06:47.837Z,97546.06
2023-10-09T13:09:16.816Z,97546.38
2023-10-09T13:11:49.329Z,97551.63
2023-10-09T13:14:19.042Z,97532.84
2023-10-09T13:16:51.722Z,97532.44
2023-10-09T13:19:21.012Z,97524.03
2023-10-09T13:21:50.375Z,97525.91
2023-10-09T13:24:21.647Z,97529.50
2023-10-09T13:26:53.392Z,97520.47
2023-10-09T13:29:26.304Z,97515.81
2023-10-09T13:31:59.855Z,97521.91
2023-10-09T13:34:29.809Z,97513.38
2023-10-09T13:37:05.914Z,97511.84
2023-10-09T13:39:38.734Z,97512.06
2023-10-09T13:42:08.326Z,97512.34
2023-10-09T13:44:37.387Z,97514.34
2023-10-09T13:47:20.770Z,97504.81
2023-10-09T13:49:57.633Z,97501.28
2023-10-09T13:52:28.150Z,97495.50
2023-10-09T13:54:58.805Z,97505.81
2023-10-09T13:57:32.455Z,97490.09
2023-10-09T14:00:01.813Z,97495.25
2023-10-09T14:02:31.853Z,97490.94
2023-10-09T14:05:02.976Z,97490.25
2023-10-09T14:07:29.711Z,97485.31
2023-10-09T14:09:56.712Z,97477.75
2023-10-09T14:12:30.817Z,97477.47
2023-10-09T14:14:57.670Z,97470.19
2023-10-09T14:17:27.249Z,97472.22
2023-10-09T14:19:55.056Z,97472.72
2023-10-09T14:22:27.739Z,97470.97
2023-10-09T14:24:59.054Z,97472.38
2023-10-09T14:27:31.346Z,97466.34
2023-10-09T14:30:01.143Z,97463.47
2023-10-09T14:32:38.382Z,97463.28
2023-10-09T14:35:14.064Z,97457.31
2023-10-09T14:37:41.588Z,97457.84
2023-10-09T14:40:14.059Z,97457.84
2023-10-09T14:42:46.298Z,97454.47
2023-10-09T14:45:17.485Z,97451.22
2023-10-09T14:47:44.332Z,97445.94
2023-10-09T14:50:11.236Z,97443.09
2023-10-09T14:52:40.244Z,97444.06
2023-10-09T14:55:07.939Z,97435.97
2023-10-09T14:57:35.167Z,97437.94
2023-10-09T15:00:11.003Z,97446.72
2023-10-09T15:02:37.655Z,97435.06
2023-10-09T15:05:11.640Z,97445.03
2023-10-09T15:07:41.083Z,97438.00
2023-10-09T15:10:10.745Z,97439.56
2023-10-09T15:12:41.089Z,97440.38
2023-10-09T15:15:18.351Z,97440.13
2023-10-09T15:17:47.024Z,97445.66
2023-10-09T15:20:17.940Z,97442.13
2023-10-09T15:22:45.940Z,97433.81
2023-10-09T15:25:18.683Z,97424.50
2023-10-09T15:27:47.806Z,97431.78
2023-10-09T15:30:18.214Z,97424.94
2023-10-09T15:32:50.570Z,97426.94
2023-10-09T15:35:20.118Z,97425.63
2023-10-09T15:37:49.203Z,97427.13
2023-10-09T15:40:16.546Z,97426.56
2023-10-09T15:42:45.117Z,97431.78
2023-10-09T15:45:14.500Z,97436.72
2023-10-09T15:47:41.280Z,97432.13
2023-10-09T15:50:13.090Z,97427.06
2023-10-09T15:52:40.280Z,97428.59
2023-10-09T15:55:14.641Z,97428.84
2023-10-09T15:57:44.701Z,97425.25
2023-10-09T16:00:21.067Z,97428.69
2023-10-09T16:02:49.380Z,97431.41
2023-10-09T16:05:17.983Z,97429.84
2023-10-09T16:07:45.175Z,97430.78
2023-10-09T16:10:17.176Z,97433.47
2023-10-09T16:12:44.824Z,97430.16
2023-10-09T16:15:15.673Z,97438.13
2023-10-09T16:17:48.904Z,97427.50
2023-10-09T16:20:23.253Z,97437.94
2023-10-09T16:22:53.512Z,97432.06
2023-10-09T16:25:25.195Z,97437.75
2023-10-09T16:27:52.038Z,97431.78
2023-10-09T16:30:19.939Z,97450.03
2023-10-09T16:32:47.547Z,97445.09
2023-10-09T16:35:14.831Z,97442.19
2023-10-09T16:37:50.688Z,97436.03
2023-10-09T16:40:21.710Z,97446.22
2023-10-09T16:42:50.504Z,97453.97
2023-10-09T16:45:20.177Z,97458.63
2023-10-09T16:47:52.315Z,97449.41
2023-10-09T16:50:29.407Z,97458.06
2023-10-09T16:52:56.414Z,97451.13
2023-10-09T16:55:25.856Z,97451.69
2023-10-09T16:57:57.228Z,97446.75
2023-10-09T17:00:29.750Z,97452.44
2023-10-09T17:02:59.951Z,97454.44
2023-10-09T17:05:37.475Z,97458.91
2023-10-09T17:08:11.051Z,97456.19
2023-10-09T17:10:40.470Z,97457.38
2023-10-09T17:13:09.851Z,97455.31
2023-10-09T17:15:38.994Z,97451.78
2023-10-09T17:18:08.110Z,97463.16
2023-10-09T17:20:41.526Z,97456.91
2023-10-09T17:23:12.346Z,97459.41
2023-10-09T17:25:45.608Z,97460.34
2023-10-09T17:28:20.980Z,97464.22
2023-10-09T17:30:53.960Z,97460.09
2023-10-09T17:33:23.849Z,97467.00
2023-10-09T17:35:56.533Z,97469.59
2023-10-09T17:38:23.240Z,97466.56
2023-10-09T17:40:53.483Z,97459.41
2023-10-09T17:43:25.922Z,97469.09
2023-10-09T17:45:56.072Z,97470.00
2023-10-09T17:48:23.937Z,97469.16
2023-10-09T17:50:51.077Z,97478.09
2023-10-09T17:53:22.569Z,97475.97
2023-10-09T17:55:58.270Z,97472.59
2023-10-09T17:58:27.196Z,97476.28
2023-10-09T18:00:59.840Z,97478.56
2023-10-09T18:03:31.813Z,97478.44
2023-10-09T18:06:01.058Z,97477.97
2023-10-09T18:08:30.154Z,97475.69
2023-10-09T18:11:02.498Z,97479.94
2023-10-09T18:13:31.808Z,97479.50
2023-10-09T18:16:13.689Z,97470.94
2023-10-09T18:18:41.325Z,97474.28
2023-10-09T18:21:12.200Z,97475.97
2023-10-09T18:23:45.717Z,97477.03
2023-10-09T18:26:17.797Z,97468.34
2023-10-09T18:28:48.742Z,97472.75
2023-10-09T18:31:21.805Z,97470.16
2023-10-09T18:33:53.958Z,97477.19
2023-10-09T18:36:21.227Z,97468.19
2023-10-09T18:38:53.403Z,97478.72
2023-10-09T18:41:20.435Z,97475.22
2023-10-09T18:43:49.468Z,97472.47
2023-10-09T18:46:20.010Z,97472.28
2023-10-09T18:48:47.314Z,97477.78
2023-10-09T18:51:20.389Z,97484.78
2023-10-09T18:53:49.505Z,97477.00
2023-10-09T18:56:17.788Z,97467.22
2023-10-09T18:58:47.933Z,97465.94
2023-10-09T19:01:17.938Z,97465.94
2023-10-09T19:03:51.792Z,97462.69
2023-10-09T19:06:19.853Z,97467.69
2023-10-09T19:08:49.904Z,97473.78
2023-10-09T19:11:22.323Z,97473.97
2023-10-09T19:13:56.374Z,97477.81
2023-10-09T19:16:23.207Z,97480.69
2023-10-09T19:18:54.733Z,97480.53
2023-10-09T19:21:23.823Z,97484.16
2023-10-09T19:23:50.525Z,97488.88
2023-10-09T19:26:18.869Z,97489.28
2023-10-09T19:28:48.899Z,97487.44
2023-10-09T19:31:21.496Z,97491.47
2023-10-09T19:33:49.097Z,97489.53
2023-10-09T19:36:15.969Z,97487.22
2023-10-09T19:38:43.084Z,97495.25
2023-10-09T19:41:13.670Z,97494.88
2023-10-09T19:43:40.516Z,97495.75
2023-10-09T19:46:08.282Z,97497.19
2023-10-09T19:48:37.283Z,97502.50
2023-10-09T19:51:08.188Z,97495.19
2023-10-09T19:53:37.787Z,97505.69
2023-10-09T19:56:07.238Z,97513.81
2023-10-09T19:58:38.558Z,97518.16
2023-10-09T20:01:12.323Z,97516.22
2023-10-09T20:03:39.571Z,97528.53
2023-10-09T20:06:06.555Z,97523.81
2023-10-09T20:08:36.487Z,97524.25
2023-10-09T20:11:11.115Z,97526.66
2023-10-09T20:13:40.101Z,97530.59
2023-10-09T20:16:11.898Z,97536.75
2023-10-09T20:18:43.618Z,97531.06
2023-10-09T20:21:11.911Z,97537.84
2023-10-09T20:23:41.915Z,97529.81
2023-10-09T20:26:12.659Z,97529.03
2023-10-09T20:28:42.075Z,97538.59
2023-10-09T20:31:13.382Z,97540.03
2023-10-09T20:33:43.822Z,97545.25
2023-10-09T20:36:18.866Z,97543.03
2023-10-09T20:38:51.629Z,97539.84
2023-10-09T20:41:18.764Z,97549.59
2023-10-09T20:43:48.680Z,97550.94
2023-10-09T20:46:18.482Z,97548.88
2023-10-09T20:48:48.650Z,97555.53
2023-10-09T20:51:18.372Z,97556.53
2023-10-09T20:53:47.560Z,97549.63
2023-10-09T20:56:14.391Z,97546.13
2023-10-09T20:58:44.782Z,97550.50
2023-10-09T21:01:17.897Z,97556.75
2023-10-09T21:03:53.381Z,97552.63
2023-10-09T21:06:24.787Z,97561.59
2023-10-09T21:08:51.690Z,97567.84
2023-10-09T21:11:23.261Z,97564.75
2023-10-09T21:13:50.065Z,97564.44
2023-10-09T21:16:17.792Z,97566.97
2023-10-09T21:18:51.101Z,97566.84
2023-10-09T21:21:20.286Z,97571.09
2023-10-09T21:23:49.129Z,97563.66
2023-10-09T21:26:20.228Z,97571.97
2023-10-09T21:28:53.281Z,97559.72
2023-10-09T21:31:26.306Z,97565.09
2023-10-09T21:33:53.494Z,97562.78
2023-10-09T21:36:22.656Z,97563.69
2023-10-09T21:38:49.667Z,97562.66
2023-10-09T21:41:23.116Z,97564.28
2023-10-09T21:43:55.130Z,97559.28
2023-10-09T21:46:26.949Z,97560.91
2023-10-09T21:48:56.347Z,97557.50
2023-10-09T21:51:25.605Z,97555.75
2023-10-09T21:53:54.644Z,97559.44
2023-10-09T21:56:23.981Z,97554.97
2023-10-09T21:58:52.863Z,97553.00
2023-10-09T22:01:20.686Z,97552.13
2023-10-09T22:03:49.955Z,97554.88
2023-10-09T22:06:16.761Z,97550.59
2023-10-09T22:08:45.913Z,97550.59
2023-10-09T22:11:17.215Z,97552.91
2023-10-09T22:13:48.834Z,97542.94
2023-10-09T22:16:15.596Z,97540.75
2023-10-09T22:18:42.976Z,97549.03
2023-10-09T22:21:17.230Z,97535.16
2023-10-09T22:23:54.178Z,97543.09
2023-10-09T22:26:24.051Z,97547.03
2023-10-09T22:28:51.921Z,97545.19
2023-10-09T22:31:21.884Z,97549.56
2023-10-09T22:33:52.254Z,97544.53
2023-10-09T22:36:42.261Z,97544.94
2023-10-09T22:39:34.000Z,97543.19
2023-10-09T22:42:04.768Z,97547.22
2023-10-09T22:44:34.054Z,97544.47
2023-10-09T22:47:08.934Z,97554.34
2023-10-09T22:49:36.185Z,97543.47
2023-10-09T22:52:15.884Z,97556.47
2023-10-09T22:54:46.591Z,97542.59
2023-10-09T22:57:14.185Z,97549.66
2023-10-09T22:59:47.113Z,97556.31
2023-10-09T23:02:24.423Z,97555.56
2023-10-09T23:05:05.517Z,97554.44
2023-10-09T23:07:33.611Z,97559.81
2023-10-09T23:10:16.245Z,97552.47
2023-10-09T23:12:50.008Z,97561.66
2023-10-09T23:15:36.193Z,97559.00
2023-10-09T23:18:27.705Z,97560.88
2023-10-09T23:21:12.884Z,97565.84
2023-10-09T23:23:42.701Z,97558.41
2023-10-09T23:26:22.686Z,97561.22
2023-10-09T23:28:53.173Z,97556.53
2023-10-09T23:31:26.650Z,97557.03
2023-10-09T23:33:57.303Z,97564.81
2023-10-09T23:36:28.149Z,97571.03
2023-10-09T23:39:14.259Z,97568.66
2023-10-09T23:41:59.391Z,97572.00
2023-10-09T23:44:35.451Z,97564.47
2023-10-09T23:47:10.001Z,97559.69
2023-10-09T23:49:45.218Z,97566.78
2023-10-09T23:52:14.772Z,97566.84
2023-10-09T23:54:45.846Z,97569.00
2023-10-09T23:57:22.005Z,97566.34
